Salt Lake City, Utah
Traffic Map
Current Weather Conditions
Salt Lake City, Utah
Few Clouds
Few Clouds
64°
Feels Like: 64°
Wind Chill: 64° Ceiling: Unl
Heat Index: 64° Visibility: 10mi
Dew Point: 33° Wind: 14mph
Humidity: 31% Direction: 320° (NW)
Pressure: 30.22in Gusts: 0mph
Raw Report DataKSLC 250054Z 32012KT 10SM FEW075 18/01 A3022 RMK AO2 SLP212 T01780006
Traffic Incident Summary
Active as of:
Severity:
Category:
InformationThere was an issue retrieving the traffic information for this location. Please try a different location or try again shortly.
Advertisements